Terminal Aerodrome Forecast
Issued by NWS

Home | Current Version | Previous Version | Text Only | Print | Product List | Glossary On
Versions: 1 2 3 4 5 6 7 8 9 10 11 12 13
000
FTUS45 KABQ 031138
TAFGUP
TAF
KGUP 031138Z 0312/0412 VRB05KT P6SM BKN100
     FM031900 23010KT P6SM VCSH BKN060
     FM032300 23011G21KT 6SM -SHRA VCTS SCT020 BKN050CB
     FM040200 20008KT P6SM VCSH SCT030 BKN060=

USA.gov is the U.S. government's official web portal to all federal, state and local government web resources and services.